createdAt,value
2023-04-22T00:04:37.962Z,66.34
2023-04-22T00:09:44.142Z,67.07
2023-04-22T00:14:49.996Z,66.84
2023-04-22T00:19:56.768Z,68.76
2023-04-22T00:25:02.488Z,68.50
2023-04-22T00:30:10.143Z,67.85
2023-04-22T00:35:15.860Z,67.07
2023-04-22T00:40:22.323Z,66.61
2023-04-22T00:45:27.999Z,67.18
2023-04-22T00:50:33.401Z,66.33
2023-04-22T00:55:39.080Z,66.51
2023-04-22T01:00:44.780Z,65.95
2023-04-22T01:05:51.278Z,66.24
2023-04-22T01:10:58.637Z,65.85
2023-04-22T01:16:03.827Z,65.84
2023-04-22T01:21:09.370Z,65.20
2023-04-22T01:26:15.084Z,67.24
2023-04-22T01:31:20.820Z,66.72
2023-04-22T01:36:27.008Z,66.17
2023-04-22T01:41:33.136Z,65.85
2023-04-22T01:46:38.921Z,65.46
2023-04-22T01:51:45.448Z,66.10
2023-04-22T01:56:55.653Z,64.75
2023-04-22T02:02:01.828Z,64.98
2023-04-22T02:07:07.434Z,64.35
2023-04-22T02:12:18.900Z,65.63
2023-04-22T02:17:24.567Z,64.39
2023-04-22T02:22:30.298Z,64.04
2023-04-22T02:27:37.912Z,62.32
2023-04-22T02:32:44.390Z,61.42
2023-04-22T02:37:50.059Z,61.20
2023-04-22T02:42:56.183Z,60.02
2023-04-22T02:48:01.933Z,59.22
2023-04-22T02:53:08.588Z,56.98
2023-04-22T02:58:14.185Z,55.45
2023-04-22T03:03:19.850Z,53.59
2023-04-22T03:08:26.365Z,51.73
2023-04-22T03:13:31.704Z,52.27
2023-04-22T03:18:37.173Z,51.48
2023-04-22T03:23:43.865Z,50.34
2023-04-22T03:28:49.957Z,50.11
2023-04-22T03:33:55.611Z,48.61
2023-04-22T03:39:10.212Z,48.04
2023-04-22T03:44:15.801Z,47.20
2023-04-22T03:49:22.268Z,46.64
2023-04-22T03:54:28.062Z,46.68
2023-04-22T03:59:34.553Z,46.38
2023-04-22T04:04:40.502Z,45.47
2023-04-22T04:09:46.874Z,44.92
2023-04-22T04:14:52.984Z,43.03
2023-04-22T04:20:00.235Z,42.16
2023-04-22T04:25:07.287Z,41.34
2023-04-22T04:30:18.503Z,41.84
2023-04-22T04:35:31.561Z,40.73
2023-04-22T04:40:37.803Z,38.77
2023-04-22T04:45:49.192Z,38.43
2023-04-22T04:51:01.230Z,38.63
2023-04-22T04:56:12.266Z,38.44
2023-04-22T05:01:18.213Z,38.16
2023-04-22T05:06:25.478Z,37.39
2023-04-22T05:11:38.461Z,37.85
2023-04-22T05:16:52.371Z,37.85
2023-04-22T05:21:58.279Z,37.84
2023-04-22T05:27:04.160Z,38.81
2023-04-22T05:32:10.777Z,37.84
2023-04-22T05:37:16.386Z,36.84
2023-04-22T05:42:22.332Z,35.99
2023-04-22T05:47:28.861Z,36.06
2023-04-22T05:52:35.183Z,34.79
2023-04-22T05:57:47.516Z,35.75
2023-04-22T06:03:19.069Z,37.04
2023-04-22T06:08:24.860Z,36.39
2023-04-22T06:13:30.687Z,38.75
2023-04-22T06:18:38.131Z,40.14
2023-04-22T06:23:50.287Z,42.31
2023-04-22T06:28:56.243Z,41.14
2023-04-22T06:34:02.714Z,41.57
2023-04-22T06:39:08.531Z,42.21
2023-04-22T06:44:35.323Z,43.12
2023-04-22T06:49:58.590Z,42.79
2023-04-22T06:55:11.554Z,43.27
2023-04-22T07:00:17.421Z,43.42
2023-04-22T07:05:22.949Z,42.64
2023-04-22T07:10:29.142Z,42.46
2023-04-22T07:15:53.993Z,42.37
2023-04-22T07:20:59.468Z,41.40
2023-04-22T07:26:05.532Z,44.21
2023-04-22T07:31:11.264Z,42.10
2023-04-22T07:36:16.949Z,42.35
2023-04-22T07:41:22.522Z,41.81
2023-04-22T07:46:28.058Z,42.16
2023-04-22T07:51:33.602Z,41.17
2023-04-22T07:56:39.280Z,40.10
2023-04-22T08:01:47.124Z,41.14
2023-04-22T08:06:52.683Z,40.68
2023-04-22T08:11:58.932Z,40.57
2023-04-22T08:17:04.550Z,41.07
2023-04-22T08:22:10.408Z,40.70
2023-04-22T08:27:16.064Z,39.88
2023-04-22T08:32:23.043Z,39.87
2023-04-22T08:37:29.051Z,40.03
2023-04-22T08:42:35.243Z,39.22
2023-04-22T08:47:41.770Z,39.30
2023-04-22T08:52:47.168Z,39.12
2023-04-22T08:57:53.181Z,38.13
2023-04-22T09:03:02.788Z,38.52
2023-04-22T09:08:09.520Z,38.18
2023-04-22T09:13:15.515Z,38.16
2023-04-22T09:18:21.772Z,38.68
2023-04-22T09:23:27.613Z,38.85
2023-04-22T09:28:33.108Z,38.07
2023-04-22T09:33:40.726Z,38.71
2023-04-22T09:39:05.879Z,38.24
2023-04-22T09:44:18.909Z,38.30
2023-04-22T09:49:24.530Z,36.91
2023-04-22T09:54:29.906Z,37.24
2023-04-22T09:59:35.467Z,37.73
2023-04-22T10:04:40.899Z,38.15
2023-04-22T10:09:46.619Z,37.20
2023-04-22T10:14:52.505Z,37.75
2023-04-22T10:20:00.177Z,38.92
2023-04-22T10:25:06.578Z,38.33
2023-04-22T10:30:29.833Z,37.82
2023-04-22T10:35:35.498Z,38.48
2023-04-22T10:41:01.519Z,38.84
2023-04-22T10:46:07.476Z,37.63
2023-04-22T10:51:43.003Z,37.62
2023-04-22T10:57:09.073Z,38.75
2023-04-22T11:02:17.385Z,38.07
2023-04-22T11:07:32.278Z,38.24
2023-04-22T11:13:02.999Z,38.16
2023-04-22T11:18:24.510Z,38.31
2023-04-22T11:23:29.873Z,39.09
2023-04-22T11:28:35.357Z,39.55
2023-04-22T11:33:41.395Z,39.39
2023-04-22T11:38:59.314Z,39.41
2023-04-22T11:44:04.920Z,39.91
2023-04-22T11:49:15.033Z,39.76
2023-04-22T11:54:37.633Z,39.63
2023-04-22T11:59:43.597Z,39.69
2023-04-22T12:04:49.006Z,39.58
2023-04-22T12:09:57.854Z,39.48
2023-04-22T12:15:13.814Z,39.95
2023-04-22T12:20:20.075Z,40.01
2023-04-22T12:25:26.001Z,40.01
2023-04-22T12:30:31.893Z,39.85
2023-04-22T12:35:37.630Z,40.06
2023-04-22T12:40:43.099Z,39.51
2023-04-22T12:45:48.762Z,39.19
2023-04-22T12:50:55.040Z,39.36
2023-04-22T12:56:00.635Z,38.96
2023-04-22T13:01:06.839Z,39.60
2023-04-22T13:06:12.049Z,40.70
2023-04-22T13:11:17.504Z,40.12
2023-04-22T13:16:23.268Z,40.45
2023-04-22T13:21:29.926Z,40.31
2023-04-22T13:26:37.321Z,40.58
2023-04-22T13:31:46.824Z,40.70
2023-04-22T13:36:52.317Z,40.90
2023-04-22T13:41:58.125Z,41.10
2023-04-22T13:47:04.097Z,40.93
2023-04-22T13:52:09.529Z,41.30
2023-04-22T13:57:15.342Z,41.63
2023-04-22T14:02:21.009Z,42.12
2023-04-22T14:07:26.650Z,41.96
2023-04-22T14:12:32.157Z,42.12
2023-04-22T14:17:37.782Z,42.07
2023-04-22T14:22:43.232Z,42.21
2023-04-22T14:27:49.158Z,43.08
2023-04-22T14:32:54.869Z,43.22
2023-04-22T14:38:00.452Z,43.66
2023-04-22T14:43:07.795Z,43.49
2023-04-22T14:48:13.351Z,44.30
2023-04-22T14:53:18.874Z,43.88
2023-04-22T14:58:24.569Z,44.72
2023-04-22T15:03:30.524Z,45.88
2023-04-22T15:08:36.945Z,45.96
2023-04-22T15:13:42.530Z,46.58
2023-04-22T15:18:48.144Z,46.77
2023-04-22T15:23:53.748Z,46.86
2023-04-22T15:28:59.042Z,47.46
2023-04-22T15:34:04.330Z,47.66
2023-04-22T15:39:11.237Z,48.25
2023-04-22T15:44:17.468Z,47.84
2023-04-22T15:49:22.997Z,48.05
2023-04-22T15:54:28.404Z,47.99
2023-04-22T15:59:33.902Z,48.09
2023-04-22T16:04:39.486Z,49.04
2023-04-22T16:09:45.107Z,49.74
2023-04-22T16:14:50.660Z,50.23
2023-04-22T16:19:56.305Z,50.49
2023-04-22T16:25:02.053Z,50.46
2023-04-22T16:30:09.769Z,50.83
2023-04-22T16:35:15.424Z,51.34
2023-04-22T16:40:20.918Z,51.86
2023-04-22T16:45:26.690Z,51.97
2023-04-22T16:50:32.796Z,52.60
2023-04-22T16:55:38.945Z,53.11
2023-04-22T17:00:45.700Z,53.50
2023-04-22T17:05:55.203Z,53.79
2023-04-22T17:11:00.468Z,53.98
2023-04-22T17:16:06.359Z,54.31
2023-04-22T17:21:11.846Z,54.77
2023-04-22T17:26:17.466Z,55.04
2023-04-22T17:31:23.969Z,55.48
2023-04-22T17:36:29.777Z,55.49
2023-04-22T17:41:35.136Z,55.98
2023-04-22T17:46:42.153Z,56.36
2023-04-22T17:51:47.633Z,56.42
2023-04-22T17:56:52.948Z,57.64
2023-04-22T18:01:59.667Z,58.72
2023-04-22T18:07:06.363Z,58.38
2023-04-22T18:12:11.827Z,58.77
2023-04-22T18:17:23.222Z,58.62
2023-04-22T18:22:29.045Z,58.87
2023-04-22T18:27:34.314Z,59.89
2023-04-22T18:32:39.975Z,60.38
2023-04-22T18:37:46.161Z,60.79
2023-04-22T18:42:51.556Z,60.14
2023-04-22T18:47:57.406Z,60.46
2023-04-22T18:53:02.693Z,61.03
2023-04-22T18:58:08.383Z,60.80
2023-04-22T19:03:14.063Z,61.14
2023-04-22T19:08:19.580Z,61.07
2023-04-22T19:13:29.838Z,61.70
2023-04-22T19:18:37.523Z,61.16
2023-04-22T19:23:42.934Z,61.61
2023-04-22T19:28:49.292Z,61.85
2023-04-22T19:33:54.828Z,62.55
2023-04-22T19:39:00.278Z,63.51
2023-04-22T19:44:05.625Z,63.10
2023-04-22T19:49:11.508Z,63.63
2023-04-22T19:54:21.090Z,64.13
2023-04-22T19:59:28.600Z,62.66
2023-04-22T20:04:34.572Z,63.24
2023-04-22T20:09:42.189Z,62.78
2023-04-22T20:14:48.880Z,64.50
2023-04-22T20:19:55.720Z,63.88
2023-04-22T20:25:04.051Z,65.16
2023-04-22T20:30:14.207Z,65.93
2023-04-22T20:35:20.642Z,66.02
2023-04-22T20:40:26.764Z,65.03
2023-04-22T20:45:32.727Z,65.13
2023-04-22T20:50:38.730Z,65.11
2023-04-22T20:55:44.289Z,65.84
2023-04-22T21:00:49.814Z,65.09
2023-04-22T21:05:56.947Z,65.43
2023-04-22T21:11:02.867Z,67.00
2023-04-22T21:16:12.618Z,66.74
2023-04-22T21:21:20.414Z,67.10
2023-04-22T21:26:27.831Z,67.50
2023-04-22T21:31:34.702Z,67.21
2023-04-22T21:36:40.441Z,67.38
2023-04-22T21:41:46.262Z,68.20
2023-04-22T21:46:51.788Z,68.55
2023-04-22T21:51:57.300Z,68.20
2023-04-22T21:57:03.008Z,69.04
2023-04-22T22:02:08.778Z,68.88
2023-04-22T22:07:15.336Z,70.44
2023-04-22T22:12:21.721Z,68.60
2023-04-22T22:17:28.378Z,67.73
2023-04-22T22:22:34.270Z,66.91
2023-04-22T22:27:49.606Z,68.26
2023-04-22T22:32:55.135Z,68.49
2023-04-22T22:38:00.673Z,68.95
2023-04-22T22:43:06.475Z,69.95
2023-04-22T22:48:12.149Z,70.30
2023-04-22T22:53:17.606Z,69.70
2023-04-22T22:58:22.976Z,69.99
2023-04-22T23:03:28.579Z,70.29
2023-04-22T23:08:34.209Z,70.74
2023-04-22T23:13:39.868Z,70.20
2023-04-22T23:18:45.945Z,70.25
2023-04-22T23:23:51.582Z,70.48
2023-04-22T23:28:57.746Z,70.23
2023-04-22T23:34:05.428Z,70.06
2023-04-22T23:39:10.805Z,70.67
2023-04-22T23:44:16.018Z,69.09
2023-04-22T23:49:21.563Z,69.17
2023-04-22T23:54:27.388Z,68.88
2023-04-22T23:59:33.141Z,67.88
